Time;durP1;ratioP1;P1;durP2;ratioP2;P2;SDS_P1;SDS_P2;PMS_P1;PMS_P2;Temp;Humidity;BMP_temperature;BMP_pressure;BME280_temperature;BME280_humidity;BME280_pressure;Samples;Min_cycle;Max_cycle;Signal;HPM_P1;HPM_P2
2022/11/07 00:01:24;;;;;;;76.50;37.20;;;;;;;7.57;85.58;98895.60;85870;1291;24948;-73
2022/11/07 00:03:26;;;;;;;71.00;35.60;;;;;;;7.58;85.52;98896.60;85854;1291;25397;-74
2022/11/07 00:05:28;;;;;;;69.70;36.60;;;;;;;7.61;85.45;98891.43;85754;1284;99298;-75
2022/11/07 00:07:30;;;;;;;67.50;34.20;;;;;;;7.62;85.52;98889.80;85968;1289;22459;-74
2022/11/07 00:09:32;;;;;;;68.60;35.60;;;;;;;7.62;85.71;98892.24;85769;1291;22674;-74
2022/11/07 00:11:34;;;;;;;60.30;35.10;;;;;;;7.62;85.54;98894.89;85766;1291;99246;-75
2022/11/07 00:13:36;;;;;;;72.80;36.10;;;;;;;7.61;85.42;98895.43;85860;1291;22520;-75
2022/11/07 00:15:37;;;;;;;70.30;35.50;;;;;;;7.62;85.51;98893.66;85877;1291;24619;-75
2022/11/07 00:17:39;;;;;;;72.50;36.60;;;;;;;7.64;85.76;98892.52;85868;1290;99600;-78
2022/11/07 00:19:43;;;;;;;67.70;37.10;;;;;;;7.68;85.58;98893.10;85828;1291;22481;-73
2022/11/07 00:21:47;;;;;;;71.70;36.50;;;;;;;7.70;85.76;98890.93;85935;1283;22502;-74
2022/11/07 00:23:49;;;;;;;76.30;37.70;;;;;;;7.70;85.34;98884.27;85831;1290;99189;-75
2022/11/07 00:26:04;;;;;;;83.30;40.60;;;;;;;7.72;85.46;98888.91;85901;1306;22473;-75
2022/11/07 00:28:05;;;;;;;73.20;37.90;;;;;;;7.73;85.92;98893.98;85864;1298;22478;-73
2022/11/07 00:30:07;;;;;;;85.60;39.90;;;;;;;7.73;85.64;98889.77;85845;1297;99270;-75
2022/11/07 00:32:09;;;;;;;87.60;40.50;;;;;;;7.75;85.31;98893.36;85875;1297;22479;-73
2022/11/07 00:34:12;;;;;;;76.30;38.90;;;;;;;7.77;85.62;98889.63;85843;1312;22836;-74
2022/11/07 00:36:22;;;;;;;91.80;41.90;;;;;;;7.79;85.88;98886.71;85877;1299;98413;-74
2022/11/07 00:38:26;;;;;;;82.60;42.00;;;;;;;7.81;85.73;98872.98;85820;1291;25764;-74
2022/11/07 00:40:27;;;;;;;82.00;41.00;;;;;;;7.82;85.61;98880.13;86014;1298;22825;-74
2022/11/07 00:42:29;;;;;;;89.30;41.30;;;;;;;7.83;85.70;98876.23;86416;1290;98526;-73
2022/11/07 00:44:31;;;;;;;89.60;40.10;;;;;;;7.83;85.72;98874.48;86089;1307;22604;-74
2022/11/07 00:46:32;;;;;;;86.50;40.80;;;;;;;7.81;85.61;98870.40;85768;1305;22510;-73
2022/11/07 00:48:35;;;;;;;89.60;38.10;;;;;;;7.80;85.71;98866.92;85856;1283;97951;-75
2022/11/07 00:50:37;;;;;;;82.60;40.50;;;;;;;7.76;85.79;98862.88;85897;1298;25385;-75
2022/11/07 00:52:39;;;;;;;84.80;39.90;;;;;;;7.74;85.46;98866.63;85884;1288;22522;-75
2022/11/07 00:54:41;;;;;;;91.10;42.20;;;;;;;7.73;85.58;98866.69;85819;1299;100145;-74
2022/11/07 00:56:43;;;;;;;85.60;42.60;;;;;;;7.73;85.70;98866.51;85984;1288;22625;-75
2022/11/07 00:58:44;;;;;;;84.60;41.20;;;;;;;7.74;85.60;98868.71;85825;1283;100344;-74
2022/11/07 01:00:46;;;;;;;83.70;41.60;;;;;;;7.75;85.68;98865.02;85973;1297;22621;-74
2022/11/07 01:05:09;;;;;;;83.20;38.90;;;;;;;7.76;85.87;98865.17;85898;1288;22549;-74
2022/11/07 01:05:10;;;;;;;77.90;37.90;;;;;;;7.75;85.50;98859.74;85718;1284;99189;-75
2022/11/07 01:07:12;;;;;;;83.20;37.30;;;;;;;7.75;85.70;98859.26;85858;1284;22616;-74
2022/11/07 01:09:20;;;;;;;71.10;36.10;;;;;;;7.73;85.82;98854.95;85890;1283;22697;-74
2022/11/07 01:11:23;;;;;;;71.40;38.20;;;;;;;7.70;85.84;98855.58;85864;1286;100305;-73
2022/11/07 01:13:25;;;;;;;80.00;37.80;;;;;;;7.69;85.44;98854.06;85616;1284;25498;-74
2022/11/07 01:15:27;;;;;;;76.90;36.60;;;;;;;7.68;85.78;98851.30;85967;1288;25247;-74
2022/11/07 01:17:28;;;;;;;77.50;37.60;;;;;;;7.66;85.87;98849.43;85798;1283;99196;-75
2022/11/07 01:19:30;;;;;;;78.00;35.40;;;;;;;7.66;85.63;98849.61;85629;1290;22701;-76
2022/11/07 01:21:32;;;;;;;81.50;36.30;;;;;;;7.66;85.91;98843.50;85725;1284;22614;-76
2022/11/07 01:23:35;;;;;;;82.40;38.00;;;;;;;7.64;85.62;98841.29;85779;1282;101114;-74
2022/11/07 01:25:38;;;;;;;82.30;38.40;;;;;;;7.64;85.60;98841.31;85834;1290;24401;-74
2022/11/07 01:27:40;;;;;;;78.40;36.60;;;;;;;7.64;85.89;98836.41;86071;1283;22631;-74
2022/11/07 01:29:41;;;;;;;78.00;38.00;;;;;;;7.63;85.73;98836.42;85863;1289;99784;-74
2022/11/07 01:31:47;;;;;;;70.40;34.80;;;;;;;7.61;85.81;98840.87;85955;1284;26598;-74
2022/11/07 01:33:48;;;;;;;76.00;36.30;;;;;;;7.59;85.86;98840.29;85942;1281;22576;-73
2022/11/07 01:35:50;;;;;;;87.80;39.80;;;;;;;7.57;85.84;98842.95;85871;1284;98752;-73
2022/11/07 01:37:52;;;;;;;75.00;37.80;;;;;;;7.58;86.01;98842.05;85734;1287;22687;-75
2022/11/07 01:39:54;;;;;;;84.80;38.40;;;;;;;7.60;85.72;98841.12;85894;1289;26609;-75
2022/11/07 01:41:55;;;;;;;83.40;37.10;;;;;;;7.60;85.61;98842.14;85735;1284;99340;-73
2022/11/07 01:44:07;;;;;;;78.60;36.00;;;;;;;7.58;85.84;98837.67;85750;1289;22549;-73
2022/11/07 01:46:10;;;;;;;72.40;37.40;;;;;;;7.55;85.79;98835.69;85850;1289;23746;-74
2022/11/07 01:48:11;;;;;;;81.40;38.00;;;;;;;7.55;85.69;98836.25;85890;1290;99214;-74
2022/11/07 01:50:15;;;;;;;78.30;39.10;;;;;;;7.56;85.49;98839.51;85931;1291;22483;-75
2022/11/07 01:52:25;;;;;;;85.10;39.20;;;;;;;7.57;85.89;98835.45;85744;1287;22706;-74
2022/11/07 01:54:36;;;;;;;68.30;36.00;;;;;;;7.56;85.84;98832.67;85604;1287;98040;-74
2022/11/07 01:56:41;;;;;;;82.10;38.20;;;;;;;7.54;85.84;98825.59;85819;1290;22810;-75
2022/11/07 01:58:45;;;;;;;69.90;35.60;;;;;;;7.52;85.83;98819.39;85901;1282;25579;-75
2022/11/07 02:00:47;;;;;;;69.00;34.10;;;;;;;7.49;85.85;98822.09;86318;1283;22516;-73
2022/11/07 02:03:01;;;;;;;67.90;34.10;;;;;;;7.49;85.80;98817.89;85790;1283;25388;-73
2022/11/07 02:05:05;;;;;;;70.70;35.60;;;;;;;7.50;86.37;98818.92;85803;1289;99562;-74
2022/11/07 02:07:18;;;;;;;67.90;32.40;;;;;;;7.46;85.91;98812.27;85930;1283;25484;-73
2022/11/07 02:09:20;;;;;;;66.40;31.10;;;;;;;7.43;85.59;98815.86;85931;1284;23466;-74
2022/11/07 02:11:22;;;;;;;68.50;32.50;;;;;;;7.41;86.11;98817.88;85870;1282;99184;-73
2022/11/07 02:13:28;;;;;;;74.70;33.20;;;;;;;7.41;86.07;98811.61;85842;1290;25172;-74
2022/11/07 02:15:32;;;;;;;60.10;31.70;;;;;;;7.40;85.90;98813.71;86008;1284;22505;-75
2022/11/07 02:17:34;;;;;;;68.50;31.70;;;;;;;7.40;85.92;98811.63;86006;1284;99446;-74
2022/11/07 02:19:46;;;;;;;61.20;31.70;;;;;;;7.40;86.07;98808.12;86047;1284;22471;-77
2022/11/07 02:22:08;;;;;;;;;;;;;;;7.38;86.15;98808.20;86543;1289;22552;-75
2022/11/07 02:24:09;;;;;;;;;;;;;;;7.37;86.35;98808.59;86044;1284;85672;-74
2022/11/07 02:26:11;;;;;;;;;;;;;;;7.36;86.04;98802.89;86035;1283;23060;-74
2022/11/07 02:28:14;;;;;;;59.00;29.80;;;;;;;7.35;86.08;98799.77;85896;1281;22470;-73
2022/11/07 02:33:32;;;;;;;54.90;28.70;;;;;;;7.36;85.88;98796.05;86362;1280;23900;-74
2022/11/07 02:35:43;;;;;;;57.40;29.00;;;;;;;7.33;86.18;98792.29;86079;1288;98254;-74
2022/11/07 02:37:44;;;;;;;64.90;30.20;;;;;;;7.31;85.78;98795.89;85861;1284;26590;-73
2022/11/07 02:39:46;;;;;;;60.20;30.10;;;;;;;7.28;85.87;98794.58;85976;1284;22613;-74
2022/11/07 02:41:50;;;;;;;70.60;30.60;;;;;;;7.28;86.05;98794.42;85820;1283;99259;-75
2022/11/07 02:43:55;;;;;;;63.80;30.60;;;;;;;7.29;86.36;98793.84;85800;1282;22592;-73
2022/11/07 02:46:00;;;;;;;56.40;28.50;;;;;;;7.28;86.21;98791.95;85887;1284;25306;-72
2022/11/07 02:48:02;;;;;;;62.20;29.10;;;;;;;7.25;86.21;98792.25;85873;1288;98802;-74
2022/11/07 02:50:13;;;;;;;62.10;29.80;;;;;;;7.23;86.10;98791.81;85925;1290;22524;-74
2022/11/07 02:52:15;;;;;;;74.40;30.30;;;;;;;7.22;86.38;98788.89;86125;1281;23467;-74
2022/11/07 02:54:17;;;;;;;73.60;30.60;;;;;;;7.21;85.96;98791.88;85930;1281;98387;-74
2022/11/07 02:56:20;;;;;;;68.10;31.30;;;;;;;7.21;86.40;98789.23;85885;1291;22580;-73
2022/11/07 02:58:21;;;;;;;97.80;33.30;;;;;;;7.21;86.04;98784.89;85877;1283;23420;-75
2022/11/07 03:00:23;;;;;;;74.90;30.00;;;;;;;7.22;86.21;98784.16;85887;1289;99321;-75
2022/11/07 03:02:26;;;;;;;74.20;30.60;;;;;;;7.19;86.49;98783.41;85872;1283;23330;-74
2022/11/07 03:04:28;;;;;;;102.40;31.90;;;;;;;7.18;86.10;98782.55;86005;1284;22813;-75
2022/11/07 03:06:30;;;;;;;82.00;31.90;;;;;;;7.19;85.99;98785.50;85738;1287;99240;-74
2022/11/07 03:08:32;;;;;;;88.00;29.80;;;;;;;7.19;86.33;98783.91;85907;1284;22521;-75
2022/11/07 03:10:33;;;;;;;95.00;32.60;;;;;;;7.17;86.16;98783.98;85888;1290;22507;-75
2022/11/07 03:12:35;;;;;;;72.30;32.20;;;;;;;7.13;86.26;98780.09;85686;1284;98113;-75
2022/11/07 03:14:37;;;;;;;79.70;32.10;;;;;;;7.14;86.45;98778.15;85866;1283;22535;-75
2022/11/07 03:16:39;;;;;;;59.00;29.50;;;;;;;7.14;85.95;98778.17;85818;1283;25111;-75
2022/11/07 03:18:41;;;;;;;59.90;31.10;;;;;;;7.12;86.70;98775.59;85903;1290;97928;-73
2022/11/07 03:20:43;;;;;;;56.90;29.50;;;;;;;7.12;86.10;98780.50;85862;1291;26945;-74
2022/11/07 03:22:46;;;;;;;61.60;29.50;;;;;;;7.11;86.21;98780.88;85865;1289;22708;-73
2022/11/07 03:24:48;;;;;;;60.70;29.20;;;;;;;7.11;86.30;98777.94;85698;1287;99093;-73
2022/11/07 03:26:52;;;;;;;54.50;28.70;;;;;;;7.10;86.42;98776.90;85748;1286;23031;-76
2022/11/07 03:28:54;;;;;;;59.40;29.70;;;;;;;7.08;86.26;98782.02;85946;1284;98503;-73
2022/11/07 03:31:01;;;;;;;61.80;28.60;;;;;;;7.09;86.35;98788.30;85940;1287;22503;-73
2022/11/07 03:33:03;;;;;;;56.20;26.70;;;;;;;7.09;86.25;98788.83;86231;1290;22540;-74
2022/11/07 03:35:05;;;;;;;53.30;27.70;;;;;;;7.07;86.28;98786.27;86020;1283;98744;-75
2022/11/07 03:37:07;;;;;;;54.10;29.40;;;;;;;7.06;86.23;98785.27;86045;1288;22602;-74
2022/11/07 03:39:09;;;;;;;67.10;31.10;;;;;;;7.04;86.28;98788.48;85897;1284;25399;-74
2022/11/07 03:41:15;;;;;;;77.70;31.60;;;;;;;7.06;86.44;98785.96;85933;1283;99801;-74
2022/11/07 03:43:17;;;;;;;64.90;31.40;;;;;;;7.07;86.38;98788.20;85937;1283;23864;-74
2022/11/07 03:45:19;;;;;;;60.00;30.10;;;;;;;7.09;86.59;98789.36;85991;1283;25314;-75
2022/11/07 03:47:21;;;;;;;67.00;30.90;;;;;;;7.08;86.21;98791.15;85734;1284;99227;-74
2022/11/07 03:49:24;;;;;;;63.00;30.70;;;;;;;7.09;86.22;98786.39;85798;1283;22744;-75
2022/11/07 03:51:26;;;;;;;65.20;31.60;;;;;;;7.09;86.52;98789.86;85782;1293;25316;-75
2022/11/07 03:53:28;;;;;;;70.00;33.00;;;;;;;7.09;86.43;98791.60;85884;1297;99716;-74
2022/11/07 03:55:29;;;;;;;69.60;32.50;;;;;;;7.11;86.58;98789.28;85961;1298;25884;-75
2022/11/07 03:57:31;;;;;;;68.40;32.50;;;;;;;7.12;86.41;98788.38;85927;1305;22741;-74
2022/11/07 03:59:33;;;;;;;66.10;33.10;;;;;;;7.13;86.54;98778.18;85826;1298;98216;-75
2022/11/07 04:01:35;;;;;;;61.00;31.90;;;;;;;7.13;86.78;98771.73;85751;1292;22595;-74
2022/11/07 04:03:36;;;;;;;60.30;31.90;;;;;;;7.14;86.47;98774.66;85852;1284;24430;-76
2022/11/07 04:05:38;;;;;;;57.20;30.10;;;;;;;7.14;86.51;98779.20;85653;1286;99797;-74
2022/11/07 04:07:40;;;;;;;58.40;30.80;;;;;;;7.15;86.68;98779.52;85797;1287;25388;-74
2022/11/07 04:09:41;;;;;;;50.10;29.00;;;;;;;7.15;86.37;98777.58;85902;1291;24385;-74
2022/11/07 04:18:44;;;;;;;45.40;27.20;;;;;;;7.20;86.60;98774.79;85945;1306;97890;-74
2022/11/07 04:20:46;;;;;;;46.70;25.80;;;;;;;7.21;86.76;98775.95;86108;1297;22541;-73
2022/11/07 04:22:48;;;;;;;49.30;26.90;;;;;;;7.23;86.64;98773.64;86355;1299;22537;-75
2022/11/07 04:24:50;;;;;;;50.30;27.10;;;;;;;7.24;86.62;98771.65;86150;1297;24180;-73
2022/11/07 04:29:20;;;;;;;51.50;25.80;;;;;;;7.27;86.39;98767.02;85575;1290;99170;-75
2022/11/07 04:31:22;;;;;;;50.00;25.60;;;;;;;7.28;86.52;98765.23;85996;1296;22514;-73
2022/11/07 04:33:24;;;;;;;49.90;26.50;;;;;;;7.23;86.53;98755.63;86078;1310;22550;-74
2022/11/07 04:35:29;;;;;;;52.00;26.40;;;;;;;7.28;86.41;98762.45;85785;1299;99231;-74
2022/11/07 04:37:31;;;;;;;45.80;26.20;;;;;;;7.30;86.69;98766.55;85819;1297;22949;-75
2022/11/07 04:39:32;;;;;;;47.00;26.00;;;;;;;7.31;86.43;98764.57;85981;1293;25623;-74
2022/11/07 04:41:34;;;;;;;53.70;25.80;;;;;;;7.33;86.61;98758.93;85874;1290;98158;-75
2022/11/07 04:43:36;;;;;;;49.90;25.00;;;;;;;7.33;86.22;98759.08;86009;1295;22479;-74
2022/11/07 04:45:38;;;;;;;46.20;23.40;;;;;;;7.32;86.40;98752.98;85768;1290;22617;-75
2022/11/07 04:47:40;;;;;;;50.50;23.70;;;;;;;7.27;86.32;98747.23;85706;1298;98066;-73
2022/11/07 04:49:42;;;;;;;39.70;22.60;;;;;;;7.29;86.72;98749.99;85992;1288;22581;-75
2022/11/07 04:51:44;;;;;;;38.00;23.00;;;;;;;7.27;86.53;98749.70;85659;1298;22667;-74
2022/11/07 04:53:46;;;;;;;41.40;23.40;;;;;;;7.27;86.65;98751.46;85676;1288;100143;-74
2022/11/07 04:55:47;;;;;;;43.90;24.20;;;;;;;7.28;86.61;98750.04;85941;1290;22491;-76
2022/11/07 04:57:49;;;;;;;39.00;23.20;;;;;;;7.31;86.44;98753.56;85896;1293;22519;-74
2022/11/07 04:59:51;;;;;;;37.50;22.10;;;;;;;7.34;86.59;98754.67;85765;1297;99120;-74
2022/11/07 05:01:53;;;;;;;40.30;23.00;;;;;;;7.34;86.49;98755.55;85969;1288;24057;-74
2022/11/07 05:03:55;;;;;;;37.80;23.30;;;;;;;7.34;86.58;98745.25;85862;1307;22483;-74
2022/11/07 05:05:57;;;;;;;39.50;22.10;;;;;;;7.34;86.43;98748.91;85760;1289;100326;-74
2022/11/07 05:07:58;;;;;;;33.40;21.20;;;;;;;7.36;86.42;98750.45;85835;1290;22472;-75
2022/11/07 05:10:00;;;;;;;36.00;21.80;;;;;;;7.35;86.43;98750.80;85884;1304;22614;-75
2022/11/07 05:12:02;;;;;;;35.60;21.60;;;;;;;7.37;86.70;98752.16;85823;1288;99999;-75
2022/11/07 05:14:04;;;;;;;36.90;20.80;;;;;;;7.38;86.57;98749.30;85869;1296;22500;-74
2022/11/07 05:16:12;;;;;;;35.40;21.00;;;;;;;7.37;86.50;98750.02;85821;1312;22511;-74
2022/11/07 05:18:14;;;;;;;34.10;21.10;;;;;;;7.39;86.49;98746.46;85725;1290;99630;-73
2022/11/07 05:20:45;;;;;;;36.40;22.60;;;;;;;7.37;86.55;98740.59;86022;1288;25343;-74
2022/11/07 05:25:08;;;;;;;38.50;21.50;;;;;;;7.38;86.55;98742.98;85933;1290;22007;-74
2022/11/07 05:27:18;;;;;;;27.60;17.70;;;;;;;7.39;86.58;98748.54;85651;1297;22484;-73
2022/11/07 05:29:20;;;;;;;48.10;22.10;;;;;;;7.34;86.29;98731.45;85768;1293;99290;-74
2022/11/07 05:31:21;;;;;;;41.30;24.10;;;;;;;7.45;86.55;98754.08;85988;1281;22515;-73
2022/11/07 05:33:23;;;;;;;41.50;22.30;;;;;;;7.47;86.52;98757.31;85933;1283;24237;-74
2022/11/07 05:35:25;;;;;;;36.70;23.10;;;;;;;7.49;86.75;98760.55;85571;1303;99484;-74
2022/11/07 05:37:29;;;;;;;43.30;23.30;;;;;;;7.51;86.78;98759.98;85804;1297;22489;-74
2022/11/07 05:39:31;;;;;;;47.00;22.60;;;;;;;7.51;86.56;98758.56;85654;1294;25056;-75
2022/11/07 05:41:35;;;;;;;39.10;22.90;;;;;;;7.53;86.59;98759.20;85827;1291;99707;-74
2022/11/07 05:43:37;;;;;;;40.80;24.60;;;;;;;7.54;86.59;98760.89;85709;1293;25459;-73
2022/11/07 05:45:43;;;;;;;39.60;23.20;;;;;;;7.56;86.58;98762.40;86104;1280;26520;-74
2022/11/07 05:47:45;;;;;;;41.10;22.30;;;;;;;7.58;86.46;98766.86;85692;1289;98284;-73
2022/11/07 05:49:46;;;;;;;40.90;21.90;;;;;;;7.59;86.50;98769.60;85635;1300;23362;-75
2022/11/07 05:51:48;;;;;;;34.10;21.10;;;;;;;7.61;86.57;98771.09;85808;1304;22613;-74
2022/11/07 05:53:50;;;;;;;43.70;22.20;;;;;;;7.62;86.33;98777.18;85801;1294;99226;-73
2022/11/07 05:55:52;;;;;;;35.90;21.30;;;;;;;7.63;86.38;98778.55;85840;1307;22520;-73
2022/11/07 05:57:54;;;;;;;37.10;21.70;;;;;;;7.65;86.37;98781.13;85646;1307;22522;-74
2022/11/07 05:59:56;;;;;;;39.00;21.60;;;;;;;7.66;86.53;98789.30;85784;1294;99384;-74
2022/11/07 06:01:58;;;;;;;33.50;21.80;;;;;;;7.65;86.01;98795.27;85752;1289;23994;-75
2022/11/07 06:03:59;;;;;;;32.90;21.50;;;;;;;7.65;86.59;98794.73;85886;1288;26488;-74
2022/11/07 06:06:01;;;;;;;43.40;23.40;;;;;;;7.65;86.57;98798.04;85645;1283;99714;-75
2022/11/07 06:08:03;;;;;;;45.70;22.60;;;;;;;7.65;86.25;98799.28;85813;1288;25570;-76
2022/11/07 06:10:06;;;;;;;42.30;21.80;;;;;;;7.65;86.44;98798.26;85882;1280;24260;-74
2022/11/07 06:12:07;;;;;;;44.80;23.60;;;;;;;7.53;86.28;98773.91;85722;1291;99273;-74
2022/11/07 06:14:09;;;;;;;43.00;23.10;;;;;;;7.69;86.39;98797.57;85713;1296;23993;-78
2022/11/07 06:16:11;;;;;;;42.30;22.40;;;;;;;7.69;86.11;98799.83;85587;1297;24482;-73
2022/11/07 06:18:17;;;;;;;34.70;22.20;;;;;;;7.70;86.38;98798.42;85720;1294;99246;-74
2022/11/07 06:20:19;;;;;;;39.90;23.20;;;;;;;7.71;86.42;98801.67;86017;1297;24477;-73
2022/11/07 06:22:23;;;;;;;65.20;23.90;;;;;;;7.73;86.53;98802.32;85755;1294;22612;-73
2022/11/07 06:24:25;;;;;;;45.90;24.10;;;;;;;7.74;86.82;98802.27;85618;1284;99259;-73
2022/11/07 06:26:27;;;;;;;38.20;22.70;;;;;;;7.77;86.45;98804.24;85809;1291;22494;-74
2022/11/07 06:28:31;;;;;;;38.20;23.50;;;;;;;7.79;86.37;98808.19;85662;1307;27567;-74
2022/11/07 06:30:34;;;;;;;46.40;23.10;;;;;;;7.79;86.63;98810.80;85751;1290;99752;-75
2022/11/07 06:32:36;;;;;;;46.20;22.80;;;;;;;7.79;86.32;98820.25;85657;1299;22584;-73
2022/11/07 06:34:37;;;;;;;48.50;24.10;;;;;;;7.81;86.26;98811.98;85730;1292;22939;-75
2022/11/07 06:36:39;;;;;;;42.20;23.20;;;;;;;7.82;86.44;98819.80;85617;1292;99195;-74
2022/11/07 06:38:41;;;;;;;46.50;23.90;;;;;;;7.83;86.51;98822.91;85758;1287;26713;-74
2022/11/07 06:40:43;;;;;;;44.30;23.20;;;;;;;7.83;86.29;98825.36;85749;1290;22476;-75
2022/11/07 06:42:45;;;;;;;42.20;21.90;;;;;;;7.83;86.30;98820.95;85595;1307;99159;-73
2022/11/07 06:44:46;;;;;;;46.30;24.30;;;;;;;7.83;86.48;98821.30;85838;1290;22533;-76
2022/11/07 06:46:48;;;;;;;48.70;24.60;;;;;;;7.86;86.19;98825.25;85774;1297;24260;-75
2022/11/07 06:48:50;;;;;;;47.80;25.30;;;;;;;7.89;86.47;98834.92;85893;1287;99115;-75
2022/11/07 06:50:59;;;;;;;43.80;23.80;;;;;;;7.91;86.41;98836.93;85870;1290;25688;-73
2022/11/07 06:53:07;;;;;;;47.10;24.10;;;;;;;7.88;86.69;98831.77;85747;1290;99482;-74
2022/11/07 06:55:08;;;;;;;41.10;22.60;;;;;;;7.97;86.71;98838.77;85812;1291;22610;-73
2022/11/07 06:57:10;;;;;;;42.50;23.40;;;;;;;7.99;86.59;98840.29;85794;1290;22505;-74
2022/11/07 06:59:12;;;;;;;38.80;22.80;;;;;;;8.01;86.53;98841.95;85738;1290;99717;-75
2022/11/07 07:01:15;;;;;;;49.10;24.20;;;;;;;8.03;86.70;98843.30;85795;1287;24343;-74
2022/11/07 07:03:17;;;;;;;37.60;22.70;;;;;;;8.04;86.18;98842.21;85832;1284;24376;-73
2022/11/07 07:05:18;;;;;;;34.30;22.20;;;;;;;8.05;86.25;98846.02;85607;1291;99228;-73
2022/11/07 07:07:20;;;;;;;38.10;21.70;;;;;;;8.06;86.23;98845.98;85593;1300;24810;-73
2022/11/07 07:09:21;;;;;;;46.80;23.00;;;;;;;8.05;86.29;98844.23;85936;1288;23184;-74
2022/11/07 07:11:23;;;;;;;36.30;23.00;;;;;;;8.06;86.35;98842.30;85716;1288;99253;-74
2022/11/07 07:13:25;;;;;;;39.80;22.10;;;;;;;8.07;86.20;98841.72;85924;1287;22942;-74
2022/11/07 07:15:27;;;;;;;47.30;24.40;;;;;;;8.09;86.31;98847.25;85662;1284;24376;-73
2022/11/07 07:17:29;;;;;;;39.50;22.00;;;;;;;8.08;86.11;98843.26;85526;1291;99309;-73
2022/11/07 07:19:31;;;;;;;36.20;22.50;;;;;;;8.09;86.31;98845.86;85824;1290;22520;-74
2022/11/07 07:21:33;;;;;;;47.20;22.30;;;;;;;8.09;86.53;98849.38;85879;1281;22575;-73
2022/11/07 07:23:37;;;;;;;41.60;22.20;;;;;;;8.09;86.49;98846.72;85781;1281;99583;-73
2022/11/07 07:25:39;;;;;;;47.10;23.20;;;;;;;8.09;86.29;98850.23;85927;1287;26597;-73
2022/11/07 07:27:40;;;;;;;37.60;22.10;;;;;;;8.09;86.43;98849.34;85815;1281;22595;-75
2022/11/07 07:29:43;;;;;;;49.40;24.30;;;;;;;8.09;86.13;98847.95;85579;1284;99867;-74
2022/11/07 07:31:45;;;;;;;57.60;22.80;;;;;;;8.08;86.10;98847.11;85918;1287;22544;-74
2022/11/07 07:33:47;;;;;;;40.00;23.10;;;;;;;8.08;86.47;98844.14;85857;1284;22596;-73
2022/11/07 07:35:49;;;;;;;43.50;22.50;;;;;;;8.11;86.13;98842.45;85557;1290;99731;-75
2022/11/07 07:37:51;;;;;;;34.30;21.30;;;;;;;8.15;86.59;98842.45;85864;1285;22471;-73
2022/11/07 07:39:53;;;;;;;49.70;25.10;;;;;;;8.17;86.57;98836.44;85816;1291;24356;-74
2022/11/07 07:41:55;;;;;;;45.80;23.20;;;;;;;8.20;86.39;98829.30;85520;1290;260324;-74
2022/11/07 07:43:56;;;;;;;48.30;24.90;;;;;;;8.22;86.54;98828.33;85638;1283;22448;-76
2022/11/07 07:46:00;;;;;;;39.90;24.20;;;;;;;8.25;86.52;98823.86;85921;1287;22631;-73
2022/11/07 07:48:01;;;;;;;43.00;24.60;;;;;;;8.26;86.41;98825.04;85755;1285;99230;-72
2022/11/07 07:50:04;;;;;;;40.90;22.90;;;;;;;8.28;86.45;98819.68;85844;1284;22549;-72
2022/11/07 07:52:06;;;;;;;47.90;24.00;;;;;;;8.30;86.63;98825.88;85689;1291;22515;-74
2022/11/07 07:54:10;;;;;;;50.10;24.20;;;;;;;8.32;86.05;98830.04;85653;1288;98381;-73
2022/11/07 07:56:13;;;;;;;50.70;25.20;;;;;;;8.35;86.53;98832.20;85759;1290;22540;-74
2022/11/07 07:58:15;;;;;;;46.40;24.40;;;;;;;8.40;86.30;98825.33;85874;1288;22509;-74
2022/11/07 08:00:17;;;;;;;49.40;25.10;;;;;;;8.43;86.23;98825.04;85769;1288;99746;-73
2022/11/07 08:02:19;;;;;;;46.20;26.00;;;;;;;8.47;86.13;98826.48;85983;1288;25540;-74
2022/11/07 08:04:20;;;;;;;42.50;25.80;;;;;;;8.51;86.28;98828.95;86389;1290;25725;-73
2022/11/07 08:06:22;;;;;;;48.00;24.90;;;;;;;8.54;86.19;98828.80;86421;1288;99142;-74
2022/11/07 08:08:25;;;;;;;47.40;26.10;;;;;;;8.56;86.31;98829.06;86138;1288;25568;-74
2022/11/07 08:10:26;;;;;;;46.60;25.40;;;;;;;8.60;85.96;98830.84;85829;1283;24396;-74
2022/11/07 08:12:28;;;;;;;43.80;25.00;;;;;;;8.63;86.31;98829.83;85921;1286;99268;-74
2022/11/07 08:14:30;;;;;;;43.80;25.00;;;;;;;8.65;86.15;98827.64;85955;1287;22619;-74
2022/11/07 08:16:31;;;;;;;44.80;24.80;;;;;;;8.69;86.11;98828.88;85654;1287;24038;-75
2022/11/07 08:18:35;;;;;;;54.10;23.70;;;;;;;8.73;86.21;98825.58;85617;1284;98476;-75
2022/11/07 08:20:37;;;;;;;35.80;23.10;;;;;;;8.76;86.40;98825.41;86022;1290;25396;-74
2022/11/07 08:22:39;;;;;;;43.00;24.40;;;;;;;8.78;86.27;98824.98;85806;1290;22568;-75
2022/11/07 08:24:42;;;;;;;43.40;24.70;;;;;;;8.81;86.14;98827.30;85668;1293;99178;-75
2022/11/07 08:26:44;;;;;;;42.90;23.70;;;;;;;8.85;86.26;98828.35;85717;1283;22487;-75
2022/11/07 08:28:45;;;;;;;39.40;24.70;;;;;;;8.90;85.88;98829.03;85688;1284;22493;-74
2022/11/07 08:30:59;;;;;;;42.00;23.60;;;;;;;8.91;86.20;98825.48;85567;1290;99897;-75
2022/11/07 08:33:03;;;;;;;42.80;24.50;;;;;;;8.99;86.12;98833.17;85813;1287;24448;-76
2022/11/07 08:35:07;;;;;;;36.20;24.00;;;;;;;9.04;86.13;98832.80;85746;1281;99383;-75
2022/11/07 08:37:09;;;;;;;49.90;23.00;;;;;;;9.09;86.02;98836.77;85849;1286;23764;-73
2022/11/07 08:39:11;;;;;;;51.10;24.00;;;;;;;9.15;86.26;98835.65;86195;1291;22480;-74
2022/11/07 08:41:13;;;;;;;49.20;23.60;;;;;;;9.21;86.19;98835.89;86037;1284;99660;-74
2022/11/07 08:43:16;;;;;;;47.40;23.50;;;;;;;9.28;86.14;98839.43;86188;1291;22770;-74
2022/11/07 08:45:18;;;;;;;49.40;22.40;;;;;;;9.36;86.11;98840.46;86464;1295;24336;-74
2022/11/07 08:47:27;;;;;;;40.50;22.60;;;;;;;9.45;86.19;98836.92;86043;1283;98420;-75
2022/11/07 08:49:29;;;;;;;48.40;22.50;;;;;;;9.52;86.05;98836.77;86228;1290;22510;-74
2022/11/07 08:51:31;;;;;;;40.00;22.70;;;;;;;9.60;86.13;98839.76;86165;1291;22965;-76
2022/11/07 08:53:33;;;;;;;38.30;21.30;;;;;;;9.65;85.89;98840.36;86035;1290;99914;-74
2022/11/07 08:55:35;;;;;;;37.00;22.50;;;;;;;9.69;85.72;98844.04;86173;1283;24232;-75
2022/11/07 08:57:37;;;;;;;36.60;21.80;;;;;;;9.74;85.80;98844.56;86208;1291;22519;-75
2022/11/07 08:59:39;;;;;;;34.70;20.60;;;;;;;9.78;85.66;98850.14;85783;1286;98410;-76
2022/11/07 09:01:42;;;;;;;46.30;23.10;;;;;;;9.82;85.75;98848.19;86131;1284;24242;-73
2022/11/07 09:03:44;;;;;;;34.70;21.30;;;;;;;9.78;85.60;98834.14;86136;1283;22489;-75
2022/11/07 09:05:45;;;;;;;54.20;23.80;;;;;;;9.93;85.71;98849.77;86051;1289;99415;-75
2022/11/07 09:07:47;;;;;;;40.10;22.00;;;;;;;9.98;85.75;98853.23;86031;1290;24273;-73
2022/11/07 09:09:49;;;;;;;42.30;22.50;;;;;;;10.02;85.60;98852.66;86054;1294;25551;-75
2022/11/07 09:11:51;;;;;;;40.00;22.00;;;;;;;10.08;85.58;98852.94;86251;1281;99450;-75
2022/11/07 09:13:54;;;;;;;41.50;22.30;;;;;;;10.12;85.56;98854.13;86377;1280;22498;-75
2022/11/07 09:15:58;;;;;;;39.90;22.30;;;;;;;10.15;85.46;98857.48;86363;1288;25546;-75
2022/11/07 09:18:06;;;;;;;31.10;20.40;;;;;;;10.18;85.57;98854.55;85999;1287;98614;-75
2022/11/07 09:20:09;;;;;;;44.30;21.90;;;;;;;10.22;85.57;98858.23;86202;1290;22654;-75
2022/11/07 09:22:11;;;;;;;39.30;21.30;;;;;;;10.24;85.43;98865.86;86357;1290;24292;-74
2022/11/07 09:24:13;;;;;;;35.00;19.30;;;;;;;10.28;85.49;98869.14;86263;1285;98475;-75
2022/11/07 09:26:14;;;;;;;30.70;18.20;;;;;;;10.27;85.32;98866.40;86259;1287;22475;-74
2022/11/07 09:28:16;;;;;;;33.70;18.40;;;;;;;10.33;85.24;98870.52;86250;1291;25372;-75
2022/11/07 09:30:19;;;;;;;32.40;20.00;;;;;;;10.35;85.29;98871.83;86075;1284;98403;-75
2022/11/07 09:32:22;;;;;;;34.40;17.80;;;;;;;10.28;85.13;98863.21;86202;1290;22481;-76
2022/11/07 09:34:25;;;;;;;41.00;19.00;;;;;;;10.40;85.03;98874.08;86199;1290;25562;-75
2022/11/07 09:36:27;;;;;;;38.70;20.00;;;;;;;10.42;84.95;98872.21;86123;1287;99539;-76
2022/11/07 09:38:29;;;;;;;36.60;19.90;;;;;;;10.44;84.89;98870.88;85972;1287;22490;-76
2022/11/07 09:40:46;;;;;;;34.00;20.10;;;;;;;10.46;84.87;98869.39;86172;1291;22682;-76
2022/11/07 09:43:43;;;;;;;36.50;18.80;;;;;;;10.49;84.90;98867.45;86035;1291;98352;-74
2022/11/07 09:45:57;;;;;;;31.70;18.00;;;;;;;10.54;84.89;98865.30;85649;1289;23610;-74
2022/11/07 09:48:05;;;;;;;33.40;19.20;;;;;;;10.58;84.89;98867.73;85603;1296;99654;-77